createdAt,value
2023-05-09T00:01:20.796Z,100.00
2023-05-09T00:03:47.748Z,100.00
2023-05-09T00:06:15.536Z,100.00
2023-05-09T00:08:42.245Z,100.00
2023-05-09T00:11:09.131Z,100.00
2023-05-09T00:13:35.885Z,100.00
2023-05-09T00:16:03.649Z,100.00
2023-05-09T00:18:31.207Z,100.00
2023-05-09T00:20:58.076Z,100.00
2023-05-09T00:23:24.736Z,100.00
2023-05-09T00:25:51.436Z,100.00
2023-05-09T00:28:18.139Z,100.00
2023-05-09T00:30:44.920Z,100.00
2023-05-09T00:33:11.650Z,100.00
2023-05-09T00:35:38.535Z,100.00
2023-05-09T00:38:05.162Z,100.00
2023-05-09T00:40:31.901Z,100.00
2023-05-09T00:43:01.593Z,100.00
2023-05-09T00:45:28.205Z,100.00
2023-05-09T00:47:55.699Z,100.00
2023-05-09T00:50:22.378Z,100.00
2023-05-09T00:52:49.221Z,100.00
2023-05-09T00:55:16.552Z,100.00
2023-05-09T00:57:43.544Z,100.00
2023-05-09T01:00:14.165Z,100.00
2023-05-09T01:02:43.304Z,100.00
2023-05-09T01:05:11.398Z,100.00
2023-05-09T01:07:57.143Z,100.00
2023-05-09T01:10:35.224Z,100.00
2023-05-09T01:13:09.211Z,99.33
2023-05-09T01:16:13.056Z,97.93
2023-05-09T01:18:51.624Z,99.58
2023-05-09T01:21:24.204Z,100.00
2023-05-09T01:24:20.739Z,100.00
2023-05-09T01:27:20.791Z,100.00
2023-05-09T01:29:49.072Z,100.00
2023-05-09T01:32:24.321Z,100.00
2023-05-09T01:34:54.518Z,100.00
2023-05-09T01:37:27.052Z,100.00
2023-05-09T01:39:56.076Z,100.00
2023-05-09T01:42:23.818Z,100.00
2023-05-09T01:44:51.203Z,100.00
2023-05-09T01:47:18.496Z,100.00
2023-05-09T01:49:47.684Z,100.00
2023-05-09T01:52:17.664Z,100.00
2023-05-09T01:54:45.926Z,100.00
2023-05-09T01:57:13.009Z,100.00
2023-05-09T01:59:43.166Z,100.00
2023-05-09T02:02:10.450Z,100.00
2023-05-09T02:04:38.073Z,100.00
2023-05-09T02:07:06.550Z,100.00
2023-05-09T02:09:33.494Z,100.00
2023-05-09T02:12:00.221Z,100.00
2023-05-09T02:14:27.002Z,100.00
2023-05-09T02:16:54.267Z,100.00
2023-05-09T02:19:20.938Z,100.00
2023-05-09T02:21:47.526Z,100.00
2023-05-09T02:24:14.357Z,100.00
2023-05-09T02:26:41.563Z,100.00
2023-05-09T02:29:10.899Z,100.00
2023-05-09T02:31:41.172Z,100.00
2023-05-09T02:34:09.855Z,100.00
2023-05-09T02:36:36.665Z,100.00
2023-05-09T02:39:03.655Z,100.00
2023-05-09T02:41:30.863Z,100.00
2023-05-09T02:43:57.455Z,100.00
2023-05-09T02:46:24.095Z,100.00
2023-05-09T02:48:51.541Z,100.00
2023-05-09T02:51:18.025Z,100.00
2023-05-09T02:53:44.638Z,100.00
2023-05-09T02:56:11.291Z,100.00
2023-05-09T02:58:38.454Z,100.00
2023-05-09T03:01:05.193Z,100.00
2023-05-09T03:03:34.893Z,100.00
2023-05-09T03:06:01.658Z,100.00
2023-05-09T03:08:28.231Z,100.00
2023-05-09T03:10:54.927Z,100.00
2023-05-09T03:13:21.588Z,100.00
2023-05-09T03:15:48.380Z,100.00
2023-05-09T03:18:15.014Z,100.00
2023-05-09T03:20:41.675Z,100.00
2023-05-09T03:23:08.350Z,100.00
2023-05-09T03:25:34.979Z,100.00
2023-05-09T03:28:01.609Z,100.00
2023-05-09T03:30:28.291Z,100.00
2023-05-09T03:32:54.929Z,100.00
2023-05-09T03:35:21.650Z,100.00
2023-05-09T03:37:48.277Z,100.00
2023-05-09T03:40:14.985Z,100.00
2023-05-09T03:42:41.649Z,100.00
2023-05-09T03:45:08.880Z,100.00
2023-05-09T03:47:35.503Z,100.00
2023-05-09T03:50:02.407Z,100.00
2023-05-09T03:52:29.068Z,100.00
2023-05-09T03:54:55.693Z,100.00
2023-05-09T03:57:22.317Z,100.00
2023-05-09T03:59:48.923Z,100.00
2023-05-09T04:02:15.636Z,100.00
2023-05-09T04:04:42.443Z,100.00
2023-05-09T04:07:09.239Z,100.00
2023-05-09T04:09:35.945Z,100.00
2023-05-09T04:12:02.577Z,100.00
2023-05-09T04:14:29.233Z,100.00
2023-05-09T04:16:55.841Z,100.00
2023-05-09T04:19:22.498Z,100.00
2023-05-09T04:21:49.117Z,100.00
2023-05-09T04:24:15.769Z,100.00
2023-05-09T04:26:42.611Z,100.00
2023-05-09T04:29:09.336Z,100.00
2023-05-09T04:31:36.335Z,100.00
2023-05-09T04:34:03.516Z,100.00
2023-05-09T04:36:30.147Z,99.42
2023-05-09T04:38:57.071Z,100.00
2023-05-09T04:41:24.085Z,99.75
2023-05-09T04:43:51.873Z,98.91
2023-05-09T04:46:18.605Z,99.42
2023-05-09T04:48:45.283Z,98.77
2023-05-09T04:51:11.867Z,99.32
2023-05-09T04:53:38.540Z,99.18
2023-05-09T04:56:05.347Z,99.06
2023-05-09T04:58:33.345Z,96.85
2023-05-09T05:01:00.072Z,97.84
2023-05-09T05:03:26.620Z,98.11
2023-05-09T05:05:53.307Z,98.42
2023-05-09T05:08:20.119Z,96.63
2023-05-09T05:10:47.591Z,95.26
2023-05-09T05:13:14.082Z,95.59
2023-05-09T05:15:41.233Z,94.75
2023-05-09T05:18:08.034Z,94.30
2023-05-09T05:20:35.292Z,96.08
2023-05-09T05:23:01.943Z,93.22
2023-05-09T05:25:28.512Z,93.89
2023-05-09T05:27:55.053Z,92.61
2023-05-09T05:30:21.722Z,91.68
2023-05-09T05:32:48.386Z,91.73
2023-05-09T05:35:15.183Z,91.08
2023-05-09T05:37:42.284Z,88.75
2023-05-09T05:40:09.883Z,86.26
2023-05-09T05:42:36.714Z,86.43
2023-05-09T05:45:06.462Z,84.15
2023-05-09T05:47:37.106Z,82.51
2023-05-09T05:50:11.683Z,80.80
2023-05-09T05:52:39.728Z,76.11
2023-05-09T05:55:06.606Z,74.55
2023-05-09T05:57:34.588Z,74.16
2023-05-09T06:00:01.734Z,70.02
2023-05-09T06:02:28.421Z,70.46
2023-05-09T06:04:56.164Z,68.81
2023-05-09T06:07:22.934Z,68.21
2023-05-09T06:09:49.607Z,65.44
2023-05-09T06:12:17.096Z,64.19
2023-05-09T06:14:43.913Z,64.19
2023-05-09T06:17:10.676Z,64.06
2023-05-09T06:19:37.779Z,62.15
2023-05-09T06:22:04.455Z,61.40
2023-05-09T06:24:35.987Z,61.84
2023-05-09T06:27:04.059Z,60.48
2023-05-09T06:29:30.714Z,59.79
2023-05-09T06:31:57.515Z,60.80
2023-05-09T06:34:24.299Z,61.71
2023-05-09T06:36:50.917Z,63.43
2023-05-09T06:39:17.519Z,64.13
2023-05-09T06:41:44.136Z,62.69
2023-05-09T06:44:10.789Z,63.55
2023-05-09T06:46:37.505Z,65.22
2023-05-09T06:49:05.683Z,63.41
2023-05-09T06:51:32.474Z,62.09
2023-05-09T06:53:59.145Z,65.27
2023-05-09T06:56:26.525Z,65.98
2023-05-09T06:58:53.564Z,64.73
2023-05-09T07:01:20.242Z,64.45
2023-05-09T07:03:47.658Z,64.41
2023-05-09T07:06:14.334Z,60.18
2023-05-09T07:08:40.958Z,58.50
2023-05-09T07:11:07.702Z,61.57
2023-05-09T07:13:34.405Z,62.46
2023-05-09T07:16:00.998Z,63.18
2023-05-09T07:18:27.606Z,60.50
2023-05-09T07:20:54.290Z,58.86
2023-05-09T07:23:21.160Z,57.22
2023-05-09T07:25:47.795Z,56.45
2023-05-09T07:28:14.429Z,56.13
2023-05-09T07:30:41.780Z,57.38
2023-05-09T07:33:08.501Z,56.57
2023-05-09T07:35:35.076Z,55.08
2023-05-09T07:38:01.740Z,54.67
2023-05-09T07:40:28.331Z,52.93
2023-05-09T07:42:56.796Z,53.59
2023-05-09T07:45:24.019Z,55.05
2023-05-09T07:47:50.844Z,55.86
2023-05-09T07:50:17.590Z,53.75
2023-05-09T07:52:44.448Z,54.26
2023-05-09T07:55:12.612Z,54.00
2023-05-09T07:57:40.092Z,53.40
2023-05-09T08:00:08.870Z,52.00
2023-05-09T08:02:35.690Z,51.70
2023-05-09T08:05:02.412Z,54.83
2023-05-09T08:07:28.987Z,54.33
2023-05-09T08:09:55.580Z,55.19
2023-05-09T08:12:22.182Z,55.17
2023-05-09T08:14:48.995Z,53.28
2023-05-09T08:17:16.335Z,54.42
2023-05-09T08:19:42.895Z,54.11
2023-05-09T08:22:09.539Z,57.72
2023-05-09T08:24:36.143Z,58.14
2023-05-09T08:27:02.790Z,60.61
2023-05-09T08:29:29.891Z,57.17
2023-05-09T08:31:56.607Z,58.94
2023-05-09T08:34:23.265Z,61.80
2023-05-09T08:36:49.926Z,58.02
2023-05-09T08:39:16.598Z,58.20
2023-05-09T08:41:43.729Z,57.95
2023-05-09T08:44:11.019Z,57.85
2023-05-09T08:46:39.161Z,55.32
2023-05-09T08:49:09.202Z,58.72
2023-05-09T08:51:36.105Z,55.86
2023-05-09T08:54:03.571Z,59.32
2023-05-09T08:56:31.612Z,55.59
2023-05-09T08:58:59.102Z,58.07
2023-05-09T09:01:27.032Z,60.46
2023-05-09T09:03:54.145Z,58.39
2023-05-09T09:06:22.316Z,60.03
2023-05-09T09:08:50.096Z,58.06
2023-05-09T09:11:17.728Z,57.83
2023-05-09T09:13:46.520Z,55.69
2023-05-09T09:16:21.172Z,55.95
2023-05-09T09:18:48.571Z,58.12
2023-05-09T09:21:16.713Z,56.74
2023-05-09T09:23:44.375Z,57.38
2023-05-09T09:26:11.057Z,54.30
2023-05-09T09:28:37.731Z,54.10
2023-05-09T09:31:20.180Z,58.83
2023-05-09T09:33:47.284Z,58.40
2023-05-09T09:36:13.909Z,57.69
2023-05-09T09:38:43.816Z,55.06
2023-05-09T09:41:12.537Z,55.28
2023-05-09T09:43:39.194Z,57.58
2023-05-09T09:46:06.356Z,54.75
2023-05-09T09:48:35.597Z,53.83
2023-05-09T09:51:11.797Z,54.72
2023-05-09T09:53:43.574Z,55.59
2023-05-09T09:56:11.276Z,56.95
2023-05-09T09:58:37.980Z,61.08
2023-05-09T10:01:09.609Z,56.22
2023-05-09T10:03:41.397Z,60.58
2023-05-09T10:06:16.069Z,59.33
2023-05-09T10:08:49.120Z,59.48
2023-05-09T10:11:16.382Z,57.39
2023-05-09T10:13:44.635Z,61.21
2023-05-09T10:16:11.832Z,57.86
2023-05-09T10:18:42.666Z,59.84
2023-05-09T10:21:15.230Z,58.62
2023-05-09T10:23:46.370Z,60.41
2023-05-09T10:26:29.115Z,64.88
2023-05-09T10:28:58.151Z,60.75
2023-05-09T10:31:29.934Z,63.32
2023-05-09T10:33:57.283Z,60.02
2023-05-09T10:36:24.250Z,58.45
2023-05-09T10:38:55.402Z,60.06
2023-05-09T10:41:23.714Z,60.23
2023-05-09T10:43:50.609Z,57.76
2023-05-09T10:46:17.895Z,61.04
2023-05-09T10:48:45.115Z,60.00
2023-05-09T10:51:13.234Z,59.82
2023-05-09T10:53:46.529Z,58.97
2023-05-09T10:56:35.940Z,59.28
2023-05-09T10:59:03.111Z,60.41
2023-05-09T11:01:37.260Z,60.79
2023-05-09T11:04:13.050Z,59.90
2023-05-09T11:06:43.983Z,60.65
2023-05-09T11:09:28.278Z,60.92
2023-05-09T11:11:57.159Z,59.71
2023-05-09T11:14:38.171Z,59.72
2023-05-09T11:17:07.007Z,59.85
2023-05-09T11:19:35.111Z,62.72
2023-05-09T11:22:05.047Z,63.54
2023-05-09T11:24:32.692Z,61.38
2023-05-09T11:27:00.120Z,64.11
2023-05-09T11:29:27.139Z,65.56
2023-05-09T11:32:06.621Z,67.22
2023-05-09T11:34:34.437Z,66.97
2023-05-09T11:37:10.329Z,65.36
2023-05-09T11:40:04.826Z,67.26
2023-05-09T11:42:32.650Z,64.31
2023-05-09T11:44:59.588Z,64.03
2023-05-09T11:47:28.988Z,64.07
2023-05-09T11:49:56.052Z,61.45
2023-05-09T11:52:22.699Z,63.27
2023-05-09T11:54:50.325Z,67.63
2023-05-09T11:57:18.009Z,65.51
2023-05-09T11:59:45.680Z,66.18
2023-05-09T12:02:13.657Z,65.14
2023-05-09T12:04:40.473Z,68.50
2023-05-09T12:07:07.366Z,67.52
2023-05-09T12:09:38.677Z,65.97
2023-05-09T12:12:12.741Z,69.23
2023-05-09T12:14:40.278Z,67.63
2023-05-09T12:17:08.161Z,67.55
2023-05-09T12:19:35.041Z,68.01
2023-05-09T12:22:03.909Z,66.64
2023-05-09T12:24:31.391Z,66.92
2023-05-09T12:26:59.730Z,69.73
2023-05-09T12:29:27.217Z,66.91
2023-05-09T12:31:54.669Z,70.66
2023-05-09T12:34:21.682Z,70.80
2023-05-09T12:36:50.909Z,71.67
2023-05-09T12:39:18.636Z,70.71
2023-05-09T12:41:57.364Z,71.44
2023-05-09T12:44:29.840Z,71.61
2023-05-09T12:46:58.858Z,74.15
2023-05-09T12:49:26.228Z,74.22
2023-05-09T12:51:53.749Z,75.14
2023-05-09T12:54:25.014Z,75.63
2023-05-09T12:56:53.476Z,76.06
2023-05-09T12:59:25.038Z,73.84
2023-05-09T13:01:54.032Z,76.49
2023-05-09T13:04:21.940Z,75.81
2023-05-09T13:06:57.621Z,75.17
2023-05-09T13:09:25.868Z,76.12
2023-05-09T13:11:53.172Z,75.20
2023-05-09T13:14:23.247Z,75.41
2023-05-09T13:16:49.948Z,77.15
2023-05-09T13:19:16.729Z,77.23
2023-05-09T13:21:43.386Z,79.90
2023-05-09T13:24:10.016Z,77.74
2023-05-09T13:26:36.748Z,79.54
2023-05-09T13:29:03.388Z,80.68
2023-05-09T13:31:30.892Z,80.82
2023-05-09T13:33:57.385Z,82.52
2023-05-09T13:36:24.047Z,84.56
2023-05-09T13:38:51.035Z,84.94
2023-05-09T13:41:21.818Z,84.90
2023-05-09T13:43:48.590Z,85.03
2023-05-09T13:46:15.323Z,85.06
2023-05-09T13:48:42.059Z,84.42
2023-05-09T13:51:08.814Z,86.31
2023-05-09T13:53:38.104Z,85.37
2023-05-09T13:56:12.459Z,86.12
2023-05-09T13:58:39.075Z,85.66
2023-05-09T14:01:05.964Z,84.76
2023-05-09T14:03:32.777Z,85.63
2023-05-09T14:05:59.873Z,85.76
2023-05-09T14:08:26.507Z,87.82
2023-05-09T14:10:53.646Z,87.36
2023-05-09T14:13:20.334Z,87.36
2023-05-09T14:15:47.035Z,87.56
2023-05-09T14:18:17.674Z,89.16
2023-05-09T14:20:45.149Z,89.78
2023-05-09T14:23:11.742Z,90.89
2023-05-09T14:25:38.461Z,90.36
2023-05-09T14:28:07.052Z,90.97
2023-05-09T14:30:34.351Z,89.85
2023-05-09T14:33:01.030Z,92.02
2023-05-09T14:35:28.001Z,89.76
2023-05-09T14:37:54.720Z,89.89
2023-05-09T14:40:21.685Z,87.27
2023-05-09T14:42:48.591Z,88.34
2023-05-09T14:45:15.483Z,93.14
2023-05-09T14:47:42.195Z,90.93
2023-05-09T14:50:11.461Z,90.68
2023-05-09T14:52:38.085Z,92.51
2023-05-09T14:55:06.278Z,91.44
2023-05-09T14:57:33.626Z,91.88
2023-05-09T15:00:12.701Z,94.47
2023-05-09T15:02:47.368Z,95.57
2023-05-09T15:05:13.967Z,95.48
2023-05-09T15:07:40.716Z,95.51
2023-05-09T15:10:07.940Z,94.46
2023-05-09T15:12:34.563Z,95.50
2023-05-09T15:15:18.961Z,97.54
2023-05-09T15:17:47.047Z,96.77
2023-05-09T15:20:18.262Z,97.61
2023-05-09T15:22:48.608Z,97.05
2023-05-09T15:25:15.736Z,98.39
2023-05-09T15:27:42.672Z,98.49
2023-05-09T15:30:10.263Z,97.95
2023-05-09T15:32:42.908Z,99.36
2023-05-09T15:35:09.970Z,100.00
2023-05-09T15:37:36.875Z,100.00
2023-05-09T15:40:04.252Z,100.00
2023-05-09T15:42:31.254Z,100.00
2023-05-09T15:44:57.926Z,100.00
2023-05-09T15:47:24.682Z,100.00
2023-05-09T15:49:51.323Z,100.00
2023-05-09T15:52:18.188Z,100.00
2023-05-09T15:54:45.318Z,100.00
2023-05-09T15:57:13.408Z,100.00
2023-05-09T15:59:40.213Z,100.00
2023-05-09T16:02:07.119Z,100.00
2023-05-09T16:04:34.328Z,100.00
2023-05-09T16:07:02.568Z,100.00
2023-05-09T16:09:29.419Z,100.00
2023-05-09T16:11:56.414Z,100.00
2023-05-09T16:14:23.407Z,100.00
2023-05-09T16:16:51.718Z,100.00
2023-05-09T16:19:18.316Z,100.00
2023-05-09T16:21:47.909Z,100.00
2023-05-09T16:24:14.630Z,100.00
2023-05-09T16:26:41.279Z,100.00
2023-05-09T16:29:08.109Z,100.00
2023-05-09T16:31:35.901Z,100.00
2023-05-09T16:34:03.015Z,100.00
2023-05-09T16:36:30.415Z,100.00
2023-05-09T16:38:56.974Z,100.00
2023-05-09T16:41:23.801Z,100.00
2023-05-09T16:43:53.314Z,100.00
2023-05-09T16:46:20.008Z,100.00
2023-05-09T16:48:46.635Z,100.00
2023-05-09T16:51:13.327Z,100.00
2023-05-09T16:53:40.019Z,100.00
2023-05-09T16:56:07.954Z,100.00
2023-05-09T16:58:36.661Z,100.00
2023-05-09T17:01:03.803Z,100.00
2023-05-09T17:03:30.883Z,100.00
2023-05-09T17:05:57.526Z,100.00
2023-05-09T17:08:24.251Z,100.00
2023-05-09T17:10:50.949Z,100.00
2023-05-09T17:13:17.624Z,100.00
2023-05-09T17:15:44.478Z,100.00
2023-05-09T17:18:13.644Z,100.00
2023-05-09T17:20:43.776Z,100.00
2023-05-09T17:23:10.367Z,100.00
2023-05-09T17:25:37.118Z,100.00
2023-05-09T17:28:03.691Z,100.00
2023-05-09T17:30:30.350Z,100.00
2023-05-09T17:32:56.998Z,100.00
2023-05-09T17:35:25.723Z,100.00
2023-05-09T17:37:52.323Z,100.00
2023-05-09T17:40:19.521Z,100.00
2023-05-09T17:42:46.243Z,100.00
2023-05-09T17:45:12.891Z,100.00
2023-05-09T17:47:40.264Z,100.00
2023-05-09T17:50:07.277Z,100.00
2023-05-09T17:52:34.297Z,100.00
2023-05-09T17:55:01.783Z,100.00
2023-05-09T17:57:28.636Z,100.00
2023-05-09T17:59:55.537Z,100.00
2023-05-09T18:02:24.229Z,100.00
2023-05-09T18:04:51.564Z,100.00
2023-05-09T18:07:18.329Z,100.00
2023-05-09T18:09:45.172Z,100.00
2023-05-09T18:12:12.419Z,100.00
2023-05-09T18:14:39.632Z,100.00
2023-05-09T18:17:06.286Z,100.00
2023-05-09T18:19:33.894Z,100.00
2023-05-09T18:22:00.635Z,100.00
2023-05-09T18:24:27.567Z,100.00
2023-05-09T18:26:54.169Z,100.00
2023-05-09T18:29:21.195Z,100.00
2023-05-09T18:31:47.881Z,100.00
2023-05-09T18:34:14.654Z,100.00
2023-05-09T18:36:41.308Z,100.00
2023-05-09T18:39:08.971Z,100.00
2023-05-09T18:41:35.867Z,100.00
2023-05-09T18:44:02.648Z,100.00
2023-05-09T18:46:31.778Z,100.00
2023-05-09T18:48:59.003Z,100.00
2023-05-09T18:51:26.355Z,100.00
2023-05-09T18:53:53.470Z,100.00
2023-05-09T18:56:22.764Z,100.00
2023-05-09T18:58:52.444Z,100.00
2023-05-09T19:01:19.629Z,100.00
2023-05-09T19:03:47.719Z,100.00
2023-05-09T19:06:15.389Z,100.00
2023-05-09T19:08:43.689Z,100.00
2023-05-09T19:11:11.766Z,100.00
2023-05-09T19:13:40.882Z,100.00
2023-05-09T19:16:08.835Z,100.00
2023-05-09T19:18:35.625Z,100.00
2023-05-09T19:21:02.266Z,100.00
2023-05-09T19:23:29.070Z,100.00
2023-05-09T19:25:56.062Z,100.00
2023-05-09T19:28:25.551Z,100.00
2023-05-09T19:30:52.350Z,100.00
2023-05-09T19:33:19.693Z,100.00
2023-05-09T19:35:46.371Z,100.00
2023-05-09T19:38:13.060Z,100.00
2023-05-09T19:40:40.292Z,100.00
2023-05-09T19:43:06.919Z,100.00
2023-05-09T19:45:33.593Z,100.00
2023-05-09T19:48:00.772Z,100.00
2023-05-09T19:50:27.606Z,100.00
2023-05-09T19:52:54.181Z,100.00
2023-05-09T19:55:20.902Z,100.00
2023-05-09T19:57:47.497Z,100.00
2023-05-09T20:00:14.680Z,100.00
2023-05-09T20:02:41.658Z,100.00
2023-05-09T20:05:08.799Z,100.00
2023-05-09T20:07:35.426Z,100.00
2023-05-09T20:10:02.108Z,100.00
2023-05-09T20:12:30.227Z,100.00
2023-05-09T20:14:57.206Z,100.00
2023-05-09T20:17:24.021Z,100.00
2023-05-09T20:19:51.140Z,100.00
2023-05-09T20:22:17.825Z,100.00
2023-05-09T20:24:44.413Z,100.00
2023-05-09T20:27:11.014Z,100.00
2023-05-09T20:29:37.633Z,100.00
2023-05-09T20:32:04.709Z,100.00
2023-05-09T20:34:31.400Z,100.00
2023-05-09T20:36:58.000Z,100.00
2023-05-09T20:39:24.876Z,100.00
2023-05-09T20:41:52.228Z,100.00
2023-05-09T20:44:19.211Z,100.00
2023-05-09T20:46:46.113Z,100.00
2023-05-09T20:49:12.882Z,100.00
2023-05-09T20:51:39.718Z,100.00
2023-05-09T20:54:06.584Z,100.00
2023-05-09T20:56:35.461Z,100.00
2023-05-09T20:59:04.090Z,100.00
2023-05-09T21:01:36.825Z,100.00
2023-05-09T21:04:08.355Z,100.00
2023-05-09T21:06:36.299Z,100.00
2023-05-09T21:09:04.390Z,100.00
2023-05-09T21:11:31.127Z,100.00
2023-05-09T21:13:57.730Z,100.00
2023-05-09T21:16:24.412Z,100.00
2023-05-09T21:18:51.074Z,100.00
2023-05-09T21:21:17.955Z,100.00
2023-05-09T21:23:44.535Z,100.00
2023-05-09T21:26:11.243Z,100.00
2023-05-09T21:28:38.039Z,100.00
2023-05-09T21:31:04.927Z,100.00
2023-05-09T21:33:31.570Z,100.00
2023-05-09T21:35:59.274Z,100.00
2023-05-09T21:38:25.878Z,100.00
2023-05-09T21:40:52.540Z,100.00
2023-05-09T21:43:19.578Z,100.00
2023-05-09T21:45:46.371Z,100.00
2023-05-09T21:48:13.453Z,100.00
2023-05-09T21:50:40.240Z,100.00
2023-05-09T21:53:06.874Z,100.00
2023-05-09T21:55:33.411Z,100.00
2023-05-09T21:57:59.984Z,100.00
2023-05-09T22:00:26.635Z,100.00
2023-05-09T22:02:53.551Z,100.00
2023-05-09T22:05:20.234Z,100.00
2023-05-09T22:07:46.860Z,100.00
2023-05-09T22:10:13.787Z,100.00
2023-05-09T22:12:40.574Z,100.00
2023-05-09T22:15:08.836Z,100.00
2023-05-09T22:17:35.771Z,100.00
2023-05-09T22:20:02.518Z,100.00
2023-05-09T22:22:29.839Z,100.00
2023-05-09T22:24:56.961Z,100.00
2023-05-09T22:27:23.563Z,100.00
2023-05-09T22:29:50.423Z,100.00
2023-05-09T22:32:17.156Z,100.00
2023-05-09T22:34:47.527Z,100.00
2023-05-09T22:37:14.787Z,100.00
2023-05-09T22:39:41.449Z,100.00
2023-05-09T22:42:09.860Z,100.00
2023-05-09T22:44:36.465Z,100.00
2023-05-09T22:47:03.528Z,100.00
2023-05-09T22:49:30.142Z,100.00
2023-05-09T22:51:56.732Z,100.00
2023-05-09T22:54:23.381Z,100.00
2023-05-09T22:56:50.003Z,100.00
2023-05-09T22:59:16.645Z,100.00
2023-05-09T23:01:43.259Z,100.00
2023-05-09T23:04:09.892Z,100.00
2023-05-09T23:06:36.482Z,100.00
2023-05-09T23:09:03.089Z,100.00
2023-05-09T23:11:30.238Z,100.00
2023-05-09T23:13:57.011Z,100.00
2023-05-09T23:16:23.722Z,100.00
2023-05-09T23:18:50.399Z,100.00
2023-05-09T23:21:17.082Z,100.00
2023-05-09T23:23:43.671Z,100.00
2023-05-09T23:26:10.521Z,100.00
2023-05-09T23:28:37.103Z,100.00
2023-05-09T23:31:03.783Z,100.00
2023-05-09T23:33:30.406Z,100.00
2023-05-09T23:35:57.122Z,100.00
2023-05-09T23:38:23.826Z,100.00
2023-05-09T23:40:50.749Z,100.00
2023-05-09T23:43:18.188Z,100.00
2023-05-09T23:45:44.759Z,100.00
2023-05-09T23:48:11.446Z,100.00
2023-05-09T23:50:38.147Z,100.00
2023-05-09T23:53:05.062Z,100.00
2023-05-09T23:55:31.757Z,100.00
2023-05-09T23:57:58.358Z,100.00
